メインページ
METAR-TAF:

METAR-TAF

空港 :

モンバサ, ケニヤ

緯度: 04-02S, 経度: 039-37E, 海抜: 57m

現時点の気象観測

当レポートは1時間24分前の23:00(UTC)に作成
無風
気温 25°C
湿度 89%
気圧 1008 hPa
視程10km以上
高度2300ftの雲はほとんどない, 積乱雲.

METAR: HKMO 222300Z 00000KT 9999 FEW023CB 25/23 Q1008 NOSIG

時間: 03:24 (00:24 UTC)

予報

当レポートは1時間24分前の23:00(UTC)に作成
予報は23日の 00時(UTC)から 24日の 06時(UTC)まで有効
の風 kt
視程10km以上
高度2200ftの雲はほとんどない
23日の 09時(UTC)から 23日の 15時(UTC)まで徐々に
の風 10kt
高度2600ftの雲はほとんどない
23日の 18時(UTC)から 23日の 21時(UTC)まで徐々に
の風 5kt
高度2400ftの雲はほとんどない
24日の 00時(UTC)から 24日の 06時(UTC)まで徐々に
の風 5kt
高度2200ftの雲は散在している

TAF: HKMO 222300Z 2300/2406 00000KT 9999 FEW022 BECMG 2309/2315 09010KT FEW026 BECMG 2318/2321 08005KT FEW024 BECMG 2400/2406 36005KT SCT022

4,000以上の空港の気象観測と天気予報(METAR報とTAF報)

利用可能な観測所は地図上に黄色い丸と赤い丸で示す。

丸の上にカーソルを重ねると観測所名を参照できる。

次にクリックすると気象観測と天気予報を参照できる。

マップの切り替え:黒色「×」印の緑ボタンをクリックして拡大、「-」印の緑ボタンをクリックして縮小、緑色の三角印をクリックして隣りの地図に切り替え


METAR-TAF: